Stations météo

Publicité
Lus-La-Croix-Haute, France (7587): Température de l'air & dewpoint: 20.03.2017 09:00:00 - 26.03.2017 09:00:00 (CEST)Lus-La-Croix-Haute, France (7587): Vitesse du vent & gusts: 20.03.2017 09:00:00 - 26.03.2017 09:00:00 (CEST)Lus-La-Croix-Haute, France (7587): Direction du vent: 20.03.2017 09:00:00 - 26.03.2017 09:00:00 (CEST)Lus-La-Croix-Haute, France (7587): Quantités de précipitations: 20.03.2017 09:00:00 - 26.03.2017 09:00:00 (CEST)
Date & Time tt [°C] td [°C] ff [km/h] ff [knt] fx [km/h] fx [knt] dd rr [mm]
26.03.2017 09:00:00 - - - - - - - -
26.03.2017 08:00:00 -0,8 -0,8 2 1 8 4 NNW -
26.03.2017 07:00:00 -0,4 -0,4 2 1 5 3 E 0,0
26.03.2017 06:00:00 -0,1 -0,2 2 1 4 2 N 0,0
26.03.2017 05:00:00 0,0 0,0 2 1 5 3 E 0,0
26.03.2017 04:00:00 0,3 0,3 2 1 5 3 WSW 0,0
26.03.2017 03:00:00 0,5 0,5 2 1 8 4 W 0,0
26.03.2017 02:00:00 0,7 0,6 2 1 5 3 NNW -
26.03.2017 01:00:00 0,8 0,8 4 2 5 3 S 0,0
26.03.2017 00:00:00 0,7 0,6 2 1 5 3 WNW 0,0
25.03.2017 23:00:00 0,8 0,8 4 2 9 5 ESE 0,0
25.03.2017 22:00:00 0,7 0,4 4 2 8 4 NW 0,0
25.03.2017 21:00:00 0,5 0,5 4 2 5 3 SW 0,2
25.03.2017 20:00:00 0,8 0,7 2 1 5 3 ESE -
25.03.2017 19:00:00 0,9 0,6 2 1 8 4 WNW 1,0
25.03.2017 18:00:00 1,0 0,7 4 2 8 4 NE 1,0
25.03.2017 17:00:00 0,9 0,3 2 1 11 6 NNW 3,0
25.03.2017 16:00:00 1,9 1,2 9 5 42 23 SSW 5,0
25.03.2017 15:00:00 5,4 4,0 26 14 65 35 S 5,0
25.03.2017 14:00:00 8,5 5,8 24 13 85 46 S -
25.03.2017 13:00:00 13,9 1,2 26 14 65 35 SSE 0,0
25.03.2017 12:00:00 15,4 2,9 - - 61 33 - 0,0
25.03.2017 11:00:00 14,3 4,0 21 11 52 28 S 0,0
25.03.2017 10:00:00 7,0 5,6 4 2 15 8 SSE 0,0
25.03.2017 09:00:00 3,4 1,8 4 2 15 8 NE 0,0
25.03.2017 08:00:00 2,6 0,5 4 2 15 8 ESE -
25.03.2017 07:00:00 2,8 0,8 5 3 21 11 NNE 0,0
25.03.2017 06:00:00 1,8 1,5 4 2 16 9 NE 0,0
25.03.2017 05:00:00 2,3 2,2 8 4 22 12 E 0,0
25.03.2017 04:00:00 2,4 2,1 4 2 16 9 E 0,0
25.03.2017 03:00:00 3,4 3,4 5 3 13 7 NNW 0,0
25.03.2017 02:00:00 4,1 3,8 4 2 16 9 S -
25.03.2017 01:00:00 4,0 3,9 5 3 13 7 SE 0,0
25.03.2017 00:00:00 4,5 4,1 4 2 13 7 NNW 0,0
24.03.2017 23:00:00 5,0 4,6 4 2 9 5 SE 0,0
24.03.2017 22:00:00 5,4 4,5 4 2 9 5 S 0,0
24.03.2017 21:00:00 6,4 5,0 4 2 28 15 S 0,0
24.03.2017 20:00:00 7,4 5,4 13 7 24 13 NNW -
24.03.2017 19:00:00 9,9 5,1 13 7 31 17 S 0,0
24.03.2017 18:00:00 9,6 5,2 21 11 46 25 S 0,0
24.03.2017 17:00:00 8,2 6,7 13 7 57 31 S 1,0
24.03.2017 16:00:00 9,2 4,8 9 5 31 17 SSE 0,0
24.03.2017 15:00:00 9,1 6,2 11 6 22 12 NNW 0,0
24.03.2017 14:00:00 9,1 5,8 5 3 26 14 NE -
24.03.2017 13:00:00 9,2 5,4 11 6 34 18 SSE 0,0
24.03.2017 12:00:00 8,0 6,8 4 2 15 8 N 0,0
24.03.2017 11:00:00 6,8 5,9 4 2 13 7 E 0,0
24.03.2017 10:00:00 6,1 5,5 4 2 15 8 N 0,0
24.03.2017 09:00:00 5,7 4,7 5 3 34 18 SW 0,6
24.03.2017 08:00:00 6,2 3,9 24 13 42 23 S -
24.03.2017 07:00:00 5,7 3,9 18 10 39 21 S 0,2
24.03.2017 06:00:00 4,2 3,8 5 3 15 8 WNW 0,0
24.03.2017 05:00:00 3,6 3,5 4 2 15 8 N 0,0
24.03.2017 04:00:00 3,3 3,0 4 2 22 12 NW 0,4
24.03.2017 03:00:00 3,5 3,1 13 7 28 15 SSW 1,0
24.03.2017 02:00:00 3,8 3,4 9 5 34 18 SSW -
24.03.2017 01:00:00 4,2 3,6 13 7 29 16 S 2,0
24.03.2017 00:00:00 4,4 3,8 11 6 41 22 S 2,0
23.03.2017 23:00:00 4,5 3,3 16 9 57 31 S 2,0
23.03.2017 22:00:00 5,6 3,4 28 15 54 29 S 1,0
23.03.2017 21:00:00 8,2 2,0 24 13 55 30 SSE 0,0
23.03.2017 20:00:00 8,4 1,8 29 16 78 42 SSE -
23.03.2017 19:00:00 8,5 2,5 34 18 78 42 SE 0,0
23.03.2017 18:00:00 7,6 4,0 31 17 81 44 SE 0,2
23.03.2017 17:00:00 7,8 3,6 29 16 74 40 SE 0,6
23.03.2017 16:00:00 8,2 4,0 35 19 63 34 SSE 0,2
23.03.2017 15:00:00 8,1 3,7 24 13 74 40 SSE 0,4
23.03.2017 14:00:00 7,6 4,5 24 13 55 30 SSE -
23.03.2017 13:00:00 7,6 4,7 24 13 59 32 SSE 0,6
23.03.2017 12:00:00 10,0 2,8 26 14 61 33 SSE 0,0
23.03.2017 11:00:00 8,8 3,4 29 16 61 33 SSE 0,0
23.03.2017 10:00:00 7,0 3,1 31 17 61 33 SSE 0,0
23.03.2017 09:00:00 5,4 3,2 22 12 52 28 SSE 0,2
23.03.2017 08:00:00 4,2 3,6 13 7 34 18 S -
23.03.2017 07:00:00 4,3 3,6 15 8 29 16 S 1,0
23.03.2017 06:00:00 5,0 3,3 16 9 59 32 S 0,6
23.03.2017 05:00:00 6,7 2,0 21 11 41 22 SSE 0,0
23.03.2017 04:00:00 5,9 2,4 21 11 48 26 SSE 0,0
23.03.2017 03:00:00 6,7 0,6 18 10 44 24 SSE 0,0
23.03.2017 02:00:00 6,9 1,2 22 12 54 29 SSE -
23.03.2017 01:00:00 7,0 1,3 22 12 44 24 SSE 0,0
23.03.2017 00:00:00 7,1 1,6 22 12 44 24 SSE 0,0
22.03.2017 23:00:00 6,5 2,6 16 9 37 20 S 0,0
22.03.2017 22:00:00 5,3 3,0 13 7 31 17 S 0,0
22.03.2017 21:00:00 5,3 3,6 16 9 39 21 S 0,8
22.03.2017 20:00:00 7,9 1,3 21 11 57 31 SSE -
22.03.2017 19:00:00 7,8 2,5 21 11 48 26 SSE 0,2
22.03.2017 18:00:00 8,2 3,3 13 7 41 22 S 0,0
22.03.2017 17:00:00 7,9 6,4 4 2 16 9 W 1,0
22.03.2017 16:00:00 8,6 5,0 2 1 37 20 SSW 0,4
22.03.2017 15:00:00 10,2 2,5 15 8 39 21 S 0,0
22.03.2017 14:00:00 12,0 1,0 16 9 35 19 S -
22.03.2017 13:00:00 13,0 1,9 15 8 34 18 SSW 0,0
22.03.2017 12:00:00 11,7 2,4 8 4 24 13 S 0,0
22.03.2017 11:00:00 8,0 4,4 4 2 9 5 WNW 0,0
22.03.2017 10:00:00 4,5 4,2 4 2 11 6 WNW 0,0
22.03.2017 09:00:00 3,9 3,9 4 2 9 5 WNW 0,0
22.03.2017 08:00:00 3,6 3,5 4 2 13 7 NE -
22.03.2017 07:00:00 3,4 3,3 4 2 15 8 S 0,0
22.03.2017 06:00:00 2,9 2,5 8 4 11 6 SE 0,0
22.03.2017 05:00:00 3,9 3,3 4 2 11 6 SE 0,0
22.03.2017 04:00:00 4,8 4,4 4 2 8 4 NW 0,0
22.03.2017 03:00:00 4,6 3,9 4 2 8 4 ESE 0,0
22.03.2017 02:00:00 5,8 4,4 4 2 9 5 N -
22.03.2017 01:00:00 6,6 4,1 2 1 8 4 NNW 0,0
22.03.2017 00:00:00 7,1 3,7 4 2 9 5 N 0,0
21.03.2017 23:00:00 7,0 4,0 2 1 9 5 NE 0,0
21.03.2017 22:00:00 7,0 4,0 2 1 24 13 S 0,0
21.03.2017 21:00:00 7,6 4,0 15 8 29 16 NNW 0,0
21.03.2017 20:00:00 9,0 4,4 13 7 29 16 NNW -
21.03.2017 19:00:00 10,8 4,5 11 6 22 12 NNW 0,0
21.03.2017 18:00:00 12,9 5,3 9 5 34 18 NW 0,0
21.03.2017 17:00:00 15,2 4,5 13 7 26 14 SSW 0,0
21.03.2017 16:00:00 14,9 4,3 8 4 26 14 SW 0,0
21.03.2017 15:00:00 16,0 5,0 15 8 34 18 S 0,0
21.03.2017 14:00:00 16,7 4,4 15 8 28 15 S -
21.03.2017 13:00:00 16,0 4,1 15 8 29 16 S 0,0
21.03.2017 12:00:00 13,1 4,8 4 2 15 8 WSW 0,0
21.03.2017 11:00:00 10,0 5,0 11 6 26 14 WNW 0,0
21.03.2017 10:00:00 7,7 4,8 8 4 21 11 WNW 0,0
21.03.2017 09:00:00 6,8 4,8 4 2 26 14 WNW 0,0
21.03.2017 08:00:00 6,3 4,6 5 3 21 11 NNW -
21.03.2017 07:00:00 6,5 4,8 8 4 22 12 NNW 0,0
21.03.2017 06:00:00 5,7 5,0 13 7 24 13 NNW 0,0
21.03.2017 05:00:00 3,8 2,8 4 2 9 5 NNE 0,0
21.03.2017 04:00:00 4,2 3,2 4 2 9 5 NE 0,0
21.03.2017 03:00:00 4,8 3,3 4 2 18 10 NE 0,0
21.03.2017 02:00:00 5,1 3,3 8 4 15 8 NNW -
21.03.2017 01:00:00 6,1 4,4 4 2 9 5 NNE 0,0
21.03.2017 00:00:00 6,3 4,8 5 3 11 6 N 0,0
20.03.2017 23:00:00 7,1 5,2 8 4 13 7 NNE 0,0
20.03.2017 22:00:00 8,1 5,9 4 2 13 7 NNE 0,0
20.03.2017 21:00:00 9,8 6,3 4 2 34 18 N 0,0
20.03.2017 20:00:00 12,1 6,6 11 6 28 15 NNW -
20.03.2017 19:00:00 15,1 7,1 13 7 29 16 NNW 0,0
20.03.2017 18:00:00 18,2 7,0 11 6 34 18 NW 0,0
20.03.2017 17:00:00 19,3 8,3 15 8 35 19 NW 0,0
20.03.2017 16:00:00 19,6 8,9 15 8 41 22 NW 0,0
20.03.2017 15:00:00 19,0 8,3 18 10 34 18 WNW 0,0
20.03.2017 14:00:00 18,1 8,1 13 7 31 17 NW -
20.03.2017 13:00:00 15,9 7,6 13 7 24 13 WNW 0,0
20.03.2017 12:00:00 13,5 6,4 9 5 34 18 WNW 0,0
20.03.2017 11:00:00 12,1 5,9 8 4 24 13 WNW 0,0
20.03.2017 10:00:00 10,0 6,3 5 3 15 8 SSW 0,0
20.03.2017 09:00:00 - - - - - - - -

tt = Température de l'air
td = dewpoint
ff = Vitesse du vent
fx = gusts
dd = Direction du vent
rr = Quantités de précipitations

stations d'obs. à proximité